sensor_id;sensor_type;location;lat;lon;timestamp;temperature;humidity
17948;DHT22;9099;47.958;11.366;2022-11-14T00:02:26;5.80;99.90
17948;DHT22;9099;47.958;11.366;2022-11-14T00:04:53;5.60;99.90
17948;DHT22;9099;47.958;11.366;2022-11-14T00:07:20;5.50;99.90
17948;DHT22;9099;47.958;11.366;2022-11-14T00:09:46;5.30;99.90
17948;DHT22;9099;47.958;11.366;2022-11-14T00:12:13;5.30;99.90
17948;DHT22;9099;47.958;11.366;2022-11-14T00:14:40;5.40;99.90
17948;DHT22;9099;47.958;11.366;2022-11-14T00:17:08;5.40;99.90
17948;DHT22;9099;47.958;11.366;2022-11-14T00:19:35;5.40;99.90
17948;DHT22;9099;47.958;11.366;2022-11-14T00:22:02;5.40;99.90
17948;DHT22;9099;47.958;11.366;2022-11-14T00:24:29;5.40;99.90
17948;DHT22;9099;47.958;11.366;2022-11-14T00:26:56;5.50;99.90
17948;DHT22;9099;47.958;11.366;2022-11-14T00:29:23;5.50;99.90
17948;DHT22;9099;47.958;11.366;2022-11-14T00:31:50;5.50;99.90
17948;DHT22;9099;47.958;11.366;2022-11-14T00:34:18;5.40;99.90
17948;DHT22;9099;47.958;11.366;2022-11-14T00:36:45;5.40;99.90
17948;DHT22;9099;47.958;11.366;2022-11-14T00:39:13;5.20;99.90
17948;DHT22;9099;47.958;11.366;2022-11-14T00:41:40;5.10;99.90
17948;DHT22;9099;47.958;11.366;2022-11-14T00:44:07;5.00;99.90
17948;DHT22;9099;47.958;11.366;2022-11-14T00:46:36;5.00;99.90
17948;DHT22;9099;47.958;11.366;2022-11-14T00:49:03;5.00;99.90
17948;DHT22;9099;47.958;11.366;2022-11-14T00:51:31;4.90;99.90
17948;DHT22;9099;47.958;11.366;2022-11-14T00:53:58;4.80;99.90
17948;DHT22;9099;47.958;11.366;2022-11-14T00:56:25;4.80;99.90
17948;DHT22;9099;47.958;11.366;2022-11-14T00:58:52;4.70;99.90
17948;DHT22;9099;47.958;11.366;2022-11-14T01:01:19;4.70;99.90
17948;DHT22;9099;47.958;11.366;2022-11-14T01:03:47;4.70;99.90
17948;DHT22;9099;47.958;11.366;2022-11-14T01:06:14;4.70;99.90
17948;DHT22;9099;47.958;11.366;2022-11-14T01:08:42;4.60;99.90
17948;DHT22;9099;47.958;11.366;2022-11-14T01:11:11;4.40;99.90
17948;DHT22;9099;47.958;11.366;2022-11-14T01:13:38;4.30;99.90
17948;DHT22;9099;47.958;11.366;2022-11-14T01:16:06;4.20;99.90
17948;DHT22;9099;47.958;11.366;2022-11-14T01:18:33;4.10;99.90
17948;DHT22;9099;47.958;11.366;2022-11-14T01:21:04;4.10;99.90
17948;DHT22;9099;47.958;11.366;2022-11-14T01:23:31;4.20;99.90
17948;DHT22;9099;47.958;11.366;2022-11-14T01:26:02;4.20;99.90
17948;DHT22;9099;47.958;11.366;2022-11-14T01:28:29;4.20;99.90
17948;DHT22;9099;47.958;11.366;2022-11-14T01:30:56;4.10;99.90
17948;DHT22;9099;47.958;11.366;2022-11-14T01:33:32;4.10;99.90
17948;DHT22;9099;47.958;11.366;2022-11-14T01:35:59;4.10;99.90
17948;DHT22;9099;47.958;11.366;2022-11-14T01:38:26;4.10;99.90
17948;DHT22;9099;47.958;11.366;2022-11-14T01:40:53;4.10;99.90
17948;DHT22;9099;47.958;11.366;2022-11-14T01:43:29;4.00;99.90
17948;DHT22;9099;47.958;11.366;2022-11-14T01:45:59;4.00;99.90
17948;DHT22;9099;47.958;11.366;2022-11-14T01:48:31;4.10;99.90
17948;DHT22;9099;47.958;11.366;2022-11-14T01:51:04;4.10;99.90
17948;DHT22;9099;47.958;11.366;2022-11-14T01:53:33;4.10;99.90
17948;DHT22;9099;47.958;11.366;2022-11-14T01:56:04;4.10;99.90
17948;DHT22;9099;47.958;11.366;2022-11-14T01:58:34;4.20;99.90
17948;DHT22;9099;47.958;11.366;2022-11-14T02:01:02;4.10;99.90
17948;DHT22;9099;47.958;11.366;2022-11-14T02:03:30;4.10;99.90
17948;DHT22;9099;47.958;11.366;2022-11-14T02:05:59;4.00;99.90
17948;DHT22;9099;47.958;11.366;2022-11-14T02:08:26;4.00;99.90
17948;DHT22;9099;47.958;11.366;2022-11-14T02:10:54;4.00;99.90
17948;DHT22;9099;47.958;11.366;2022-11-14T02:13:21;3.90;99.90
17948;DHT22;9099;47.958;11.366;2022-11-14T02:15:49;3.90;99.90
17948;DHT22;9099;47.958;11.366;2022-11-14T02:18:16;4.00;99.90
17948;DHT22;9099;47.958;11.366;2022-11-14T02:20:44;4.00;99.90
17948;DHT22;9099;47.958;11.366;2022-11-14T02:23:11;3.90;99.90
17948;DHT22;9099;47.958;11.366;2022-11-14T02:25:39;3.90;99.90
17948;DHT22;9099;47.958;11.366;2022-11-14T02:28:08;3.90;99.90
17948;DHT22;9099;47.958;11.366;2022-11-14T02:30:36;3.90;99.90
17948;DHT22;9099;47.958;11.366;2022-11-14T02:33:03;4.00;99.90
17948;DHT22;9099;47.958;11.366;2022-11-14T02:35:29;4.00;99.90
17948;DHT22;9099;47.958;11.366;2022-11-14T02:37:57;4.10;99.90
17948;DHT22;9099;47.958;11.366;2022-11-14T02:40:24;3.90;99.90
17948;DHT22;9099;47.958;11.366;2022-11-14T02:42:51;3.70;99.90
17948;DHT22;9099;47.958;11.366;2022-11-14T02:45:18;3.70;99.90
17948;DHT22;9099;47.958;11.366;2022-11-14T02:47:45;3.60;99.90
17948;DHT22;9099;47.958;11.366;2022-11-14T02:50:12;3.60;99.90
17948;DHT22;9099;47.958;11.366;2022-11-14T02:52:39;3.70;99.90
17948;DHT22;9099;47.958;11.366;2022-11-14T02:55:09;3.90;99.90
17948;DHT22;9099;47.958;11.366;2022-11-14T02:57:35;4.00;99.90
17948;DHT22;9099;47.958;11.366;2022-11-14T03:00:03;4.10;99.90
17948;DHT22;9099;47.958;11.366;2022-11-14T03:02:30;4.00;99.90
17948;DHT22;9099;47.958;11.366;2022-11-14T03:04:57;4.00;99.90
17948;DHT22;9099;47.958;11.366;2022-11-14T03:07:24;4.20;99.90
17948;DHT22;9099;47.958;11.366;2022-11-14T03:09:51;4.30;99.90
17948;DHT22;9099;47.958;11.366;2022-11-14T03:12:19;4.30;99.90
17948;DHT22;9099;47.958;11.366;2022-11-14T03:14:46;4.40;99.90
17948;DHT22;9099;47.958;11.366;2022-11-14T03:17:12;4.60;99.90
17948;DHT22;9099;47.958;11.366;2022-11-14T03:19:39;4.50;99.90
17948;DHT22;9099;47.958;11.366;2022-11-14T03:22:06;4.50;99.90
17948;DHT22;9099;47.958;11.366;2022-11-14T03:24:33;4.60;99.90
17948;DHT22;9099;47.958;11.366;2022-11-14T03:27:00;4.60;99.90
17948;DHT22;9099;47.958;11.366;2022-11-14T03:29:28;4.60;99.90
17948;DHT22;9099;47.958;11.366;2022-11-14T03:31:55;4.60;99.90
17948;DHT22;9099;47.958;11.366;2022-11-14T03:34:22;4.70;99.90
17948;DHT22;9099;47.958;11.366;2022-11-14T03:36:48;4.90;99.90
17948;DHT22;9099;47.958;11.366;2022-11-14T03:39:15;4.90;99.90
17948;DHT22;9099;47.958;11.366;2022-11-14T03:41:42;4.90;99.90
17948;DHT22;9099;47.958;11.366;2022-11-14T03:44:09;4.90;99.90
17948;DHT22;9099;47.958;11.366;2022-11-14T03:46:37;4.90;99.90
17948;DHT22;9099;47.958;11.366;2022-11-14T03:49:04;4.80;99.90
17948;DHT22;9099;47.958;11.366;2022-11-14T03:51:31;4.90;99.90
17948;DHT22;9099;47.958;11.366;2022-11-14T03:53:58;5.00;99.90
17948;DHT22;9099;47.958;11.366;2022-11-14T03:56:25;4.90;99.90
17948;DHT22;9099;47.958;11.366;2022-11-14T03:58:51;4.80;99.90
17948;DHT22;9099;47.958;11.366;2022-11-14T04:01:18;4.70;99.90
17948;DHT22;9099;47.958;11.366;2022-11-14T04:03:46;4.70;99.90
17948;DHT22;9099;47.958;11.366;2022-11-14T04:06:13;4.70;99.90
17948;DHT22;9099;47.958;11.366;2022-11-14T04:08:40;4.60;99.90
17948;DHT22;9099;47.958;11.366;2022-11-14T04:11:07;4.60;99.90
17948;DHT22;9099;47.958;11.366;2022-11-14T04:13:34;4.60;99.90
17948;DHT22;9099;47.958;11.366;2022-11-14T04:16:01;4.60;99.90
17948;DHT22;9099;47.958;11.366;2022-11-14T04:18:28;4.60;99.90
17948;DHT22;9099;47.958;11.366;2022-11-14T04:20:56;4.60;99.90
17948;DHT22;9099;47.958;11.366;2022-11-14T04:23:23;4.60;99.90
17948;DHT22;9099;47.958;11.366;2022-11-14T04:25:50;4.60;99.90
17948;DHT22;9099;47.958;11.366;2022-11-14T04:28:17;4.50;99.90
17948;DHT22;9099;47.958;11.366;2022-11-14T04:30:43;4.50;99.90
17948;DHT22;9099;47.958;11.366;2022-11-14T04:33:10;4.50;99.90
17948;DHT22;9099;47.958;11.366;2022-11-14T04:35:37;4.50;99.90
17948;DHT22;9099;47.958;11.366;2022-11-14T04:38:06;4.50;99.90
17948;DHT22;9099;47.958;11.366;2022-11-14T04:40:32;4.40;99.90
17948;DHT22;9099;47.958;11.366;2022-11-14T04:42:59;4.40;99.90
17948;DHT22;9099;47.958;11.366;2022-11-14T04:45:26;4.40;99.90
17948;DHT22;9099;47.958;11.366;2022-11-14T04:47:53;4.40;99.90
17948;DHT22;9099;47.958;11.366;2022-11-14T04:50:20;4.40;99.90
17948;DHT22;9099;47.958;11.366;2022-11-14T04:52:50;4.50;99.90
17948;DHT22;9099;47.958;11.366;2022-11-14T04:55:18;4.50;99.90
17948;DHT22;9099;47.958;11.366;2022-11-14T04:57:45;4.40;99.90
17948;DHT22;9099;47.958;11.366;2022-11-14T05:00:13;4.40;99.90
17948;DHT22;9099;47.958;11.366;2022-11-14T05:02:40;4.40;99.90
17948;DHT22;9099;47.958;11.366;2022-11-14T05:05:08;4.50;99.90
17948;DHT22;9099;47.958;11.366;2022-11-14T05:07:35;4.50;99.90
17948;DHT22;9099;47.958;11.366;2022-11-14T05:10:01;4.50;99.90
17948;DHT22;9099;47.958;11.366;2022-11-14T05:12:30;4.50;99.90
17948;DHT22;9099;47.958;11.366;2022-11-14T05:14:57;4.50;99.90
17948;DHT22;9099;47.958;11.366;2022-11-14T05:17:24;4.40;99.90
17948;DHT22;9099;47.958;11.366;2022-11-14T05:19:51;4.40;99.90
17948;DHT22;9099;47.958;11.366;2022-11-14T05:22:21;4.40;99.90
17948;DHT22;9099;47.958;11.366;2022-11-14T05:24:49;4.40;99.90
17948;DHT22;9099;47.958;11.366;2022-11-14T05:27:16;4.40;99.90
17948;DHT22;9099;47.958;11.366;2022-11-14T05:29:44;4.50;99.90
17948;DHT22;9099;47.958;11.366;2022-11-14T05:32:10;4.50;99.90
17948;DHT22;9099;47.958;11.366;2022-11-14T05:34:37;4.50;99.90
17948;DHT22;9099;47.958;11.366;2022-11-14T05:37:04;4.50;99.90
17948;DHT22;9099;47.958;11.366;2022-11-14T05:39:31;4.50;99.90
17948;DHT22;9099;47.958;11.366;2022-11-14T05:41:58;4.50;99.90
17948;DHT22;9099;47.958;11.366;2022-11-14T05:44:25;4.50;99.90
17948;DHT22;9099;47.958;11.366;2022-11-14T05:46:53;4.40;99.90
17948;DHT22;9099;47.958;11.366;2022-11-14T05:49:20;4.20;99.90
17948;DHT22;9099;47.958;11.366;2022-11-14T05:51:46;4.10;99.90
17948;DHT22;9099;47.958;11.366;2022-11-14T05:54:13;4.10;99.90
17948;DHT22;9099;47.958;11.366;2022-11-14T05:56:40;4.10;99.90
17948;DHT22;9099;47.958;11.366;2022-11-14T05:59:07;4.10;99.90
17948;DHT22;9099;47.958;11.366;2022-11-14T06:01:34;4.10;99.90
17948;DHT22;9099;47.958;11.366;2022-11-14T06:04:04;4.00;99.90
17948;DHT22;9099;47.958;11.366;2022-11-14T06:06:31;4.00;99.90
17948;DHT22;9099;47.958;11.366;2022-11-14T06:08:58;4.00;99.90
17948;DHT22;9099;47.958;11.366;2022-11-14T06:11:25;4.00;99.90
17948;DHT22;9099;47.958;11.366;2022-11-14T06:13:52;4.00;99.90
17948;DHT22;9099;47.958;11.366;2022-11-14T06:16:19;4.00;99.90
17948;DHT22;9099;47.958;11.366;2022-11-14T06:18:46;4.10;99.90
17948;DHT22;9099;47.958;11.366;2022-11-14T06:21:16;4.10;99.90
17948;DHT22;9099;47.958;11.366;2022-11-14T06:23:43;4.10;99.90
17948;DHT22;9099;47.958;11.366;2022-11-14T06:26:15;4.10;99.90
17948;DHT22;9099;47.958;11.366;2022-11-14T06:28:44;4.10;99.90
17948;DHT22;9099;47.958;11.366;2022-11-14T06:31:11;4.20;99.90
17948;DHT22;9099;47.958;11.366;2022-11-14T06:33:38;4.20;99.90
17948;DHT22;9099;47.958;11.366;2022-11-14T06:36:06;4.20;99.90
17948;DHT22;9099;47.958;11.366;2022-11-14T06:38:36;4.20;99.90
17948;DHT22;9099;47.958;11.366;2022-11-14T06:41:03;4.30;99.90
17948;DHT22;9099;47.958;11.366;2022-11-14T06:43:33;4.30;99.90
17948;DHT22;9099;47.958;11.366;2022-11-14T06:46:01;4.10;99.90
17948;DHT22;9099;47.958;11.366;2022-11-14T06:48:28;4.10;99.90
17948;DHT22;9099;47.958;11.366;2022-11-14T06:50:56;4.10;99.90
17948;DHT22;9099;47.958;11.366;2022-11-14T06:53:25;4.30;99.90
17948;DHT22;9099;47.958;11.366;2022-11-14T06:55:55;4.50;99.90
17948;DHT22;9099;47.958;11.366;2022-11-14T06:58:25;4.60;99.90
17948;DHT22;9099;47.958;11.366;2022-11-14T07:00:52;4.80;99.90
17948;DHT22;9099;47.958;11.366;2022-11-14T07:03:19;5.00;99.90
17948;DHT22;9099;47.958;11.366;2022-11-14T07:05:45;5.20;99.90
17948;DHT22;9099;47.958;11.366;2022-11-14T07:08:12;5.40;99.90
17948;DHT22;9099;47.958;11.366;2022-11-14T07:10:39;5.60;99.90
17948;DHT22;9099;47.958;11.366;2022-11-14T07:13:07;5.80;99.90
17948;DHT22;9099;47.958;11.366;2022-11-14T07:15:36;5.90;99.90
17948;DHT22;9099;47.958;11.366;2022-11-14T07:18:03;6.30;99.90
17948;DHT22;9099;47.958;11.366;2022-11-14T07:20:30;7.20;99.90
17948;DHT22;9099;47.958;11.366;2022-11-14T07:22:56;8.20;99.90
17948;DHT22;9099;47.958;11.366;2022-11-14T07:25:23;9.20;99.90
17948;DHT22;9099;47.958;11.366;2022-11-14T07:27:50;10.30;99.90
17948;DHT22;9099;47.958;11.366;2022-11-14T07:30:18;11.20;99.90
17948;DHT22;9099;47.958;11.366;2022-11-14T07:32:45;12.20;99.90
17948;DHT22;9099;47.958;11.366;2022-11-14T07:35:12;13.10;99.90
17948;DHT22;9099;47.958;11.366;2022-11-14T07:37:39;13.50;99.90
17948;DHT22;9099;47.958;11.366;2022-11-14T07:40:07;14.20;99.90
17948;DHT22;9099;47.958;11.366;2022-11-14T07:42:34;14.90;99.90
17948;DHT22;9099;47.958;11.366;2022-11-14T07:45:00;15.60;99.90
17948;DHT22;9099;47.958;11.366;2022-11-14T07:47:29;15.80;99.90
17948;DHT22;9099;47.958;11.366;2022-11-14T07:49:55;16.30;99.90
17948;DHT22;9099;47.958;11.366;2022-11-14T07:52:22;16.80;99.90
17948;DHT22;9099;47.958;11.366;2022-11-14T07:54:49;16.80;99.90
17948;DHT22;9099;47.958;11.366;2022-11-14T07:57:16;16.40;99.90
17948;DHT22;9099;47.958;11.366;2022-11-14T07:59:43;16.40;99.90
17948;DHT22;9099;47.958;11.366;2022-11-14T08:02:11;17.00;99.90
17948;DHT22;9099;47.958;11.366;2022-11-14T08:04:41;17.80;99.90
17948;DHT22;9099;47.958;11.366;2022-11-14T08:07:08;18.50;99.90
17948;DHT22;9099;47.958;11.366;2022-11-14T08:09:35;19.80;99.90
17948;DHT22;9099;47.958;11.366;2022-11-14T08:12:01;21.10;99.90
17948;DHT22;9099;47.958;11.366;2022-11-14T08:14:28;21.70;99.90
17948;DHT22;9099;47.958;11.366;2022-11-14T08:16:55;22.30;99.90
17948;DHT22;9099;47.958;11.366;2022-11-14T08:19:22;22.20;99.90
17948;DHT22;9099;47.958;11.366;2022-11-14T08:21:50;21.90;99.90
17948;DHT22;9099;47.958;11.366;2022-11-14T08:24:17;21.90;99.90
17948;DHT22;9099;47.958;11.366;2022-11-14T08:26:44;22.70;99.90
17948;DHT22;9099;47.958;11.366;2022-11-14T08:29:11;23.10;99.90
17948;DHT22;9099;47.958;11.366;2022-11-14T08:31:38;23.40;99.90
17948;DHT22;9099;47.958;11.366;2022-11-14T08:34:05;24.30;99.90
17948;DHT22;9099;47.958;11.366;2022-11-14T08:36:32;24.60;99.00
17948;DHT22;9099;47.958;11.366;2022-11-14T08:39:00;24.70;98.90
17948;DHT22;9099;47.958;11.366;2022-11-14T08:41:27;24.70;99.60
17948;DHT22;9099;47.958;11.366;2022-11-14T08:43:54;24.50;99.90
17948;DHT22;9099;47.958;11.366;2022-11-14T08:46:21;24.50;99.60
17948;DHT22;9099;47.958;11.366;2022-11-14T08:48:48;23.70;99.90
17948;DHT22;9099;47.958;11.366;2022-11-14T08:51:15;23.50;99.90
17948;DHT22;9099;47.958;11.366;2022-11-14T08:53:41;23.40;99.90
17948;DHT22;9099;47.958;11.366;2022-11-14T08:56:10;23.30;99.90
17948;DHT22;9099;47.958;11.366;2022-11-14T08:58:37;23.40;99.90
17948;DHT22;9099;47.958;11.366;2022-11-14T09:01:06;24.30;99.90
17948;DHT22;9099;47.958;11.366;2022-11-14T09:03:33;24.60;99.10
17948;DHT22;9099;47.958;11.366;2022-11-14T09:06:01;24.80;97.60
17948;DHT22;9099;47.958;11.366;2022-11-14T09:08:29;24.70;98.50
17948;DHT22;9099;47.958;11.366;2022-11-14T09:10:59;25.00;98.90
17948;DHT22;9099;47.958;11.366;2022-11-14T09:13:28;25.20;98.40
17948;DHT22;9099;47.958;11.366;2022-11-14T09:15:57;25.10;99.00
17948;DHT22;9099;47.958;11.366;2022-11-14T09:18:24;25.20;98.60
17948;DHT22;9099;47.958;11.366;2022-11-14T09:20:50;25.10;97.70
17948;DHT22;9099;47.958;11.366;2022-11-14T09:23:17;25.20;98.60
17948;DHT22;9099;47.958;11.366;2022-11-14T09:25:44;25.50;98.20
17948;DHT22;9099;47.958;11.366;2022-11-14T09:28:11;25.40;97.70
17948;DHT22;9099;47.958;11.366;2022-11-14T09:30:39;24.90;97.50
17948;DHT22;9099;47.958;11.366;2022-11-14T09:33:06;24.80;98.20
17948;DHT22;9099;47.958;11.366;2022-11-14T09:35:33;24.70;97.30
17948;DHT22;9099;47.958;11.366;2022-11-14T09:38:04;24.70;97.80
17948;DHT22;9099;47.958;11.366;2022-11-14T09:40:41;24.60;98.40
17948;DHT22;9099;47.958;11.366;2022-11-14T09:43:25;24.10;99.00
17948;DHT22;9099;47.958;11.366;2022-11-14T09:45:55;23.60;99.00
17948;DHT22;9099;47.958;11.366;2022-11-14T09:48:26;23.40;99.90
17948;DHT22;9099;47.958;11.366;2022-11-14T09:51:05;24.00;99.90
17948;DHT22;9099;47.958;11.366;2022-11-14T09:53:36;24.80;98.80
17948;DHT22;9099;47.958;11.366;2022-11-14T09:56:10;24.60;99.60
17948;DHT22;9099;47.958;11.366;2022-11-14T09:58:39;24.30;99.90
17948;DHT22;9099;47.958;11.366;2022-11-14T10:01:11;24.70;99.80
17948;DHT22;9099;47.958;11.366;2022-11-14T10:03:46;24.90;98.10
17948;DHT22;9099;47.958;11.366;2022-11-14T10:06:26;24.90;99.20
17948;DHT22;9099;47.958;11.366;2022-11-14T10:09:11;25.00;99.00
17948;DHT22;9099;47.958;11.366;2022-11-14T10:11:46;25.40;97.70
17948;DHT22;9099;47.958;11.366;2022-11-14T10:17:44;25.90;97.90
17948;DHT22;9099;47.958;11.366;2022-11-14T10:20:20;25.90;95.80
17948;DHT22;9099;47.958;11.366;2022-11-14T10:23:00;25.90;96.50
17948;DHT22;9099;47.958;11.366;2022-11-14T10:25:37;25.70;96.30
17948;DHT22;9099;47.958;11.366;2022-11-14T10:28:19;25.50;96.70
17948;DHT22;9099;47.958;11.366;2022-11-14T10:30:53;25.40;96.00
17948;DHT22;9099;47.958;11.366;2022-11-14T10:33:32;25.70;95.20
17948;DHT22;9099;47.958;11.366;2022-11-14T10:36:06;25.60;96.60
17948;DHT22;9099;47.958;11.366;2022-11-14T10:38:41;25.50;96.10
17948;DHT22;9099;47.958;11.366;2022-11-14T10:41:11;25.80;94.80
17948;DHT22;9099;47.958;11.366;2022-11-14T10:43:40;25.70;94.90
17948;DHT22;9099;47.958;11.366;2022-11-14T10:46:13;25.80;97.40
17948;DHT22;9099;47.958;11.366;2022-11-14T10:48:44;25.60;98.50
17948;DHT22;9099;47.958;11.366;2022-11-14T10:51:18;25.60;97.00
17948;DHT22;9099;47.958;11.366;2022-11-14T10:53:50;25.50;98.10
17948;DHT22;9099;47.958;11.366;2022-11-14T10:56:20;25.60;98.10
17948;DHT22;9099;47.958;11.366;2022-11-14T10:58:47;25.60;98.00
17948;DHT22;9099;47.958;11.366;2022-11-14T11:01:34;25.50;96.80
17948;DHT22;9099;47.958;11.366;2022-11-14T11:04:28;25.50;96.40
17948;DHT22;9099;47.958;11.366;2022-11-14T11:06:57;25.60;98.20
17948;DHT22;9099;47.958;11.366;2022-11-14T11:09:25;25.30;98.00
17948;DHT22;9099;47.958;11.366;2022-11-14T11:12:15;25.20;99.50
17948;DHT22;9099;47.958;11.366;2022-11-14T11:14:43;24.90;99.60
17948;DHT22;9099;47.958;11.366;2022-11-14T11:17:18;24.70;98.60
17948;DHT22;9099;47.958;11.366;2022-11-14T11:19:48;24.30;98.60
17948;DHT22;9099;47.958;11.366;2022-11-14T11:22:36;23.80;99.10
17948;DHT22;9099;47.958;11.366;2022-11-14T11:25:21;23.50;99.40
17948;DHT22;9099;47.958;11.366;2022-11-14T11:28:04;23.40;99.60
17948;DHT22;9099;47.958;11.366;2022-11-14T11:30:31;23.40;99.90
17948;DHT22;9099;47.958;11.366;2022-11-14T11:33:14;23.20;99.90
17948;DHT22;9099;47.958;11.366;2022-11-14T11:35:44;22.80;99.90
17948;DHT22;9099;47.958;11.366;2022-11-14T11:38:11;22.40;99.90
17948;DHT22;9099;47.958;11.366;2022-11-14T11:40:38;22.10;99.90
17948;DHT22;9099;47.958;11.366;2022-11-14T11:43:10;21.70;99.90
17948;DHT22;9099;47.958;11.366;2022-11-14T11:45:41;21.30;99.90
17948;DHT22;9099;47.958;11.366;2022-11-14T11:48:15;21.00;99.90
17948;DHT22;9099;47.958;11.366;2022-11-14T11:50:44;20.80;99.90
17948;DHT22;9099;47.958;11.366;2022-11-14T11:53:16;21.10;99.90
17948;DHT22;9099;47.958;11.366;2022-11-14T11:55:46;21.10;99.90
17948;DHT22;9099;47.958;11.366;2022-11-14T11:58:20;21.10;99.90
17948;DHT22;9099;47.958;11.366;2022-11-14T12:00:50;21.40;99.90
17948;DHT22;9099;47.958;11.366;2022-11-14T12:03:19;21.40;99.90
17948;DHT22;9099;47.958;11.366;2022-11-14T12:05:54;21.70;99.90
17948;DHT22;9099;47.958;11.366;2022-11-14T12:08:29;21.90;99.90
17948;DHT22;9099;47.958;11.366;2022-11-14T12:10:58;21.90;99.90
17948;DHT22;9099;47.958;11.366;2022-11-14T12:14:00;21.60;99.90
17948;DHT22;9099;47.958;11.366;2022-11-14T12:16:45;21.60;99.90
17948;DHT22;9099;47.958;11.366;2022-11-14T12:19:37;21.50;99.90
17948;DHT22;9099;47.958;11.366;2022-11-14T12:22:34;20.90;99.90
17948;DHT22;9099;47.958;11.366;2022-11-14T12:25:22;20.60;99.90
17948;DHT22;9099;47.958;11.366;2022-11-14T12:28:07;20.70;99.90
17948;DHT22;9099;47.958;11.366;2022-11-14T12:30:39;20.90;99.90
17948;DHT22;9099;47.958;11.366;2022-11-14T12:33:09;21.00;99.90
17948;DHT22;9099;47.958;11.366;2022-11-14T12:35:47;21.10;99.90
17948;DHT22;9099;47.958;11.366;2022-11-14T12:38:16;21.30;99.90
17948;DHT22;9099;47.958;11.366;2022-11-14T12:40:49;21.30;99.90
17948;DHT22;9099;47.958;11.366;2022-11-14T12:43:33;21.10;99.90
17948;DHT22;9099;47.958;11.366;2022-11-14T12:46:02;21.40;99.90
17948;DHT22;9099;47.958;11.366;2022-11-14T12:48:35;21.50;99.90
17948;DHT22;9099;47.958;11.366;2022-11-14T12:51:05;21.20;99.90
17948;DHT22;9099;47.958;11.366;2022-11-14T12:53:53;21.00;99.90
17948;DHT22;9099;47.958;11.366;2022-11-14T12:56:45;21.20;99.90
17948;DHT22;9099;47.958;11.366;2022-11-14T12:59:28;21.10;99.90
17948;DHT22;9099;47.958;11.366;2022-11-14T13:05:14;20.80;99.90
17948;DHT22;9099;47.958;11.366;2022-11-14T13:07:50;20.50;99.90
17948;DHT22;9099;47.958;11.366;2022-11-14T13:10:29;20.50;99.90
17948;DHT22;9099;47.958;11.366;2022-11-14T13:12:58;20.40;99.90
17948;DHT22;9099;47.958;11.366;2022-11-14T13:15:49;20.20;99.90
17948;DHT22;9099;47.958;11.366;2022-11-14T13:18:33;19.80;99.90
17948;DHT22;9099;47.958;11.366;2022-11-14T13:21:23;19.50;99.90
17948;DHT22;9099;47.958;11.366;2022-11-14T13:24:08;19.30;99.90
17948;DHT22;9099;47.958;11.366;2022-11-14T13:26:45;19.20;99.90
17948;DHT22;9099;47.958;11.366;2022-11-14T13:32:54;19.20;99.90
17948;DHT22;9099;47.958;11.366;2022-11-14T13:35:29;19.30;99.90
17948;DHT22;9099;47.958;11.366;2022-11-14T13:38:25;19.60;99.90
17948;DHT22;9099;47.958;11.366;2022-11-14T13:41:05;19.50;99.90
17948;DHT22;9099;47.958;11.366;2022-11-14T13:43:44;19.40;99.90
17948;DHT22;9099;47.958;11.366;2022-11-14T13:46:23;19.40;99.90
17948;DHT22;9099;47.958;11.366;2022-11-14T13:49:01;19.40;99.90
17948;DHT22;9099;47.958;11.366;2022-11-14T13:51:33;19.10;99.90
17948;DHT22;9099;47.958;11.366;2022-11-14T13:54:00;18.90;99.90
17948;DHT22;9099;47.958;11.366;2022-11-14T13:56:33;18.60;99.90
17948;DHT22;9099;47.958;11.366;2022-11-14T13:59:43;18.50;99.90
17948;DHT22;9099;47.958;11.366;2022-11-14T14:02:42;18.30;99.90
17948;DHT22;9099;47.958;11.366;2022-11-14T14:05:19;18.20;99.90
17948;DHT22;9099;47.958;11.366;2022-11-14T14:07:55;18.00;99.90
17948;DHT22;9099;47.958;11.366;2022-11-14T14:10:29;17.80;99.90
17948;DHT22;9099;47.958;11.366;2022-11-14T14:13:06;17.60;99.90
17948;DHT22;9099;47.958;11.366;2022-11-14T14:15:44;17.50;99.90
17948;DHT22;9099;47.958;11.366;2022-11-14T14:18:22;17.30;99.90
17948;DHT22;9099;47.958;11.366;2022-11-14T14:20:55;17.10;99.90
17948;DHT22;9099;47.958;11.366;2022-11-14T14:23:33;17.00;99.90
17948;DHT22;9099;47.958;11.366;2022-11-14T14:26:11;16.80;99.90
17948;DHT22;9099;47.958;11.366;2022-11-14T14:28:48;16.80;99.90
17948;DHT22;9099;47.958;11.366;2022-11-14T14:31:19;16.90;99.90
17948;DHT22;9099;47.958;11.366;2022-11-14T14:33:49;16.90;99.90
17948;DHT22;9099;47.958;11.366;2022-11-14T14:36:19;16.80;99.90
17948;DHT22;9099;47.958;11.366;2022-11-14T14:38:46;16.60;99.90
17948;DHT22;9099;47.958;11.366;2022-11-14T14:41:15;16.50;99.90
17948;DHT22;9099;47.958;11.366;2022-11-14T14:43:49;16.30;99.90
17948;DHT22;9099;47.958;11.366;2022-11-14T14:46:27;16.10;99.90
17948;DHT22;9099;47.958;11.366;2022-11-14T14:48:55;15.90;99.90
17948;DHT22;9099;47.958;11.366;2022-11-14T14:51:30;15.70;99.90
17948;DHT22;9099;47.958;11.366;2022-11-14T14:53:57;15.60;99.90
17948;DHT22;9099;47.958;11.366;2022-11-14T14:56:26;15.40;99.90
17948;DHT22;9099;47.958;11.366;2022-11-14T14:58:53;15.40;99.90
17948;DHT22;9099;47.958;11.366;2022-11-14T15:01:23;15.30;99.90
17948;DHT22;9099;47.958;11.366;2022-11-14T15:03:56;15.10;99.90
17948;DHT22;9099;47.958;11.366;2022-11-14T15:06:27;15.00;99.90
17948;DHT22;9099;47.958;11.366;2022-11-14T15:08:56;14.90;99.90
17948;DHT22;9099;47.958;11.366;2022-11-14T15:11:23;14.80;99.90
17948;DHT22;9099;47.958;11.366;2022-11-14T15:13:55;14.70;99.90
17948;DHT22;9099;47.958;11.366;2022-11-14T15:16:22;14.60;99.90
17948;DHT22;9099;47.958;11.366;2022-11-14T15:18:51;14.50;99.90
17948;DHT22;9099;47.958;11.366;2022-11-14T15:21:25;14.20;99.90
17948;DHT22;9099;47.958;11.366;2022-11-14T15:24:00;13.90;99.90
17948;DHT22;9099;47.958;11.366;2022-11-14T15:26:29;13.80;99.90
17948;DHT22;9099;47.958;11.366;2022-11-14T15:29:05;13.60;99.90
17948;DHT22;9099;47.958;11.366;2022-11-14T15:31:36;13.40;99.90
17948;DHT22;9099;47.958;11.366;2022-11-14T15:34:06;13.30;99.90
17948;DHT22;9099;47.958;11.366;2022-11-14T15:39:48;13.20;99.90
17948;DHT22;9099;47.958;11.366;2022-11-14T15:42:18;13.00;99.90
17948;DHT22;9099;47.958;11.366;2022-11-14T15:44:46;12.90;99.90
17948;DHT22;9099;47.958;11.366;2022-11-14T15:47:19;12.90;99.90
17948;DHT22;9099;47.958;11.366;2022-11-14T15:50:00;12.80;99.90
17948;DHT22;9099;47.958;11.366;2022-11-14T15:52:33;12.70;99.90
17948;DHT22;9099;47.958;11.366;2022-11-14T15:55:02;12.50;99.90
17948;DHT22;9099;47.958;11.366;2022-11-14T15:57:31;12.20;99.90
17948;DHT22;9099;47.958;11.366;2022-11-14T15:59:58;12.00;99.90
17948;DHT22;9099;47.958;11.366;2022-11-14T16:02:28;12.00;99.90
17948;DHT22;9099;47.958;11.366;2022-11-14T16:04:57;12.00;99.90
17948;DHT22;9099;47.958;11.366;2022-11-14T16:07:24;12.00;99.90
17948;DHT22;9099;47.958;11.366;2022-11-14T16:09:52;12.00;99.90
17948;DHT22;9099;47.958;11.366;2022-11-14T16:12:20;12.00;99.90